createdAt,value
2017-09-30T00:00:00.870Z,0
2017-09-30T00:01:08.960Z,0
2017-09-30T00:02:17.044Z,0
2017-09-30T00:03:25.133Z,0
2017-09-30T00:04:33.215Z,0
2017-09-30T00:05:41.301Z,0
2017-09-30T00:06:49.386Z,0
2017-09-30T00:07:57.471Z,0
2017-09-30T00:09:05.564Z,0
2017-09-30T00:10:13.647Z,0
2017-09-30T00:11:21.728Z,0
2017-09-30T00:12:29.852Z,0
2017-09-30T00:13:37.922Z,0
2017-09-30T00:14:46.007Z,0
2017-09-30T00:15:54.093Z,0
2017-09-30T00:17:02.273Z,0
2017-09-30T00:18:10.275Z,0
2017-09-30T00:19:18.373Z,0
2017-09-30T00:20:26.458Z,0
2017-09-30T00:21:34.545Z,0
2017-09-30T00:22:42.633Z,0
2017-09-30T00:23:50.716Z,0
2017-09-30T00:24:58.803Z,0
2017-09-30T00:26:06.888Z,0
2017-09-30T00:27:14.973Z,0
2017-09-30T00:28:23.060Z,0
2017-09-30T00:29:31.142Z,0
2017-09-30T00:30:39.230Z,0
2017-09-30T00:31:47.316Z,0
2017-09-30T00:32:55.406Z,0
2017-09-30T00:34:03.488Z,0
2017-09-30T00:35:11.576Z,0
2017-09-30T00:36:19.661Z,0
2017-09-30T00:37:27.750Z,0
2017-09-30T00:38:35.833Z,0
2017-09-30T00:39:43.914Z,0
2017-09-30T00:40:51.997Z,0
2017-09-30T00:42:00.112Z,0
2017-09-30T00:43:08.174Z,0
2017-09-30T00:44:16.260Z,0
2017-09-30T00:45:24.343Z,0
2017-09-30T00:46:32.429Z,0
2017-09-30T00:47:40.514Z,0
2017-09-30T00:48:48.599Z,0
2017-09-30T00:49:56.689Z,0
2017-09-30T00:51:04.772Z,0
2017-09-30T00:52:12.858Z,0
2017-09-30T00:53:20.953Z,0
2017-09-30T00:54:29.032Z,0
2017-09-30T00:55:37.117Z,0
2017-09-30T00:56:45.208Z,0
2017-09-30T00:57:53.288Z,0
2017-09-30T00:59:01.374Z,0
2017-09-30T01:00:09.459Z,0
2017-09-30T01:01:17.546Z,0
2017-09-30T01:02:25.650Z,0
2017-09-30T01:03:33.719Z,0
2017-09-30T01:04:41.806Z,0
2017-09-30T01:05:49.894Z,0
2017-09-30T01:06:58.089Z,0
2017-09-30T01:08:06.201Z,0
2017-09-30T01:09:14.283Z,0
2017-09-30T01:10:22.374Z,0
2017-09-30T01:11:30.454Z,0
2017-09-30T01:12:38.542Z,0
2017-09-30T01:13:46.627Z,0
2017-09-30T01:14:54.713Z,0
2017-09-30T01:16:02.799Z,0
2017-09-30T01:17:10.883Z,0
2017-09-30T01:18:19.049Z,0
2017-09-30T01:19:27.142Z,0
2017-09-30T01:20:35.228Z,0
2017-09-30T01:21:43.314Z,0
2017-09-30T01:22:51.400Z,0
2017-09-30T01:23:59.486Z,0
2017-09-30T01:25:07.949Z,0
2017-09-30T01:26:16.050Z,0
2017-09-30T01:27:24.119Z,0
2017-09-30T01:28:32.205Z,0
2017-09-30T01:29:40.291Z,0
2017-09-30T01:30:48.377Z,0
2017-09-30T01:31:56.463Z,0
2017-09-30T01:33:04.553Z,0
2017-09-30T01:34:12.642Z,0
2017-09-30T01:35:20.725Z,0
2017-09-30T01:36:28.806Z,0
2017-09-30T01:37:36.900Z,0
2017-09-30T01:38:44.984Z,0
2017-09-30T01:39:53.074Z,0
2017-09-30T01:41:01.155Z,0
2017-09-30T01:42:09.249Z,0
2017-09-30T01:43:17.333Z,0
2017-09-30T01:44:25.417Z,0
2017-09-30T01:45:33.504Z,0
2017-09-30T01:46:41.590Z,0
2017-09-30T01:47:49.676Z,0
2017-09-30T01:48:57.765Z,0
2017-09-30T01:50:05.870Z,0
2017-09-30T01:51:13.935Z,0
2017-09-30T01:52:22.026Z,0
2017-09-30T01:53:30.107Z,0
2017-09-30T01:54:38.191Z,0
2017-09-30T01:55:46.288Z,0
2017-09-30T01:56:54.373Z,0
2017-09-30T01:58:02.460Z,0
2017-09-30T01:59:10.544Z,0
2017-09-30T02:00:18.634Z,0
2017-09-30T02:01:26.736Z,0
2017-09-30T02:02:34.800Z,0
2017-09-30T02:03:42.886Z,0
2017-09-30T02:04:50.977Z,0
2017-09-30T02:05:59.059Z,0
2017-09-30T02:07:07.145Z,0
2017-09-30T02:08:15.231Z,0
2017-09-30T02:09:23.317Z,0
2017-09-30T02:10:31.403Z,0
2017-09-30T02:11:39.487Z,0
2017-09-30T02:12:47.572Z,0
2017-09-30T02:13:55.657Z,0
2017-09-30T02:15:03.744Z,0
2017-09-30T02:16:11.830Z,0
2017-09-30T02:17:19.916Z,0
2017-09-30T02:18:28.002Z,0
2017-09-30T02:19:36.108Z,0
2017-09-30T02:20:44.194Z,0
2017-09-30T02:21:52.281Z,0
2017-09-30T02:23:00.367Z,0
2017-09-30T02:24:08.458Z,0
2017-09-30T02:25:16.538Z,0
2017-09-30T02:26:24.622Z,0
2017-09-30T02:27:32.790Z,0
2017-09-30T02:28:40.794Z,0
2017-09-30T02:29:48.884Z,0
2017-09-30T02:30:56.988Z,0
2017-09-30T02:32:05.053Z,0
2017-09-30T02:33:13.138Z,0
2017-09-30T02:34:21.224Z,0
2017-09-30T02:35:29.307Z,0
2017-09-30T02:36:37.393Z,0
2017-09-30T02:37:45.479Z,0
2017-09-30T02:38:53.565Z,0
2017-09-30T02:40:01.647Z,0
2017-09-30T02:41:09.739Z,0
2017-09-30T02:42:17.825Z,0
2017-09-30T02:43:25.909Z,0
2017-09-30T02:44:33.998Z,0
2017-09-30T02:45:42.100Z,0
2017-09-30T02:46:50.164Z,0
2017-09-30T02:47:58.248Z,0
2017-09-30T02:49:06.335Z,0
2017-09-30T02:50:14.421Z,0
2017-09-30T02:51:22.507Z,0
2017-09-30T02:52:30.627Z,0
2017-09-30T02:53:38.732Z,0
2017-09-30T02:54:46.798Z,0
2017-09-30T02:55:54.885Z,0
2017-09-30T02:57:02.970Z,0
2017-09-30T02:58:11.055Z,0
2017-09-30T02:59:19.146Z,0
2017-09-30T03:00:27.593Z,0
2017-09-30T03:01:35.313Z,0
2017-09-30T03:02:43.397Z,0
2017-09-30T03:03:51.481Z,0
2017-09-30T03:04:59.569Z,0
2017-09-30T03:06:07.654Z,0
2017-09-30T03:07:15.742Z,0
2017-09-30T03:08:23.830Z,0
2017-09-30T03:09:31.914Z,0
2017-09-30T03:10:39.998Z,0
2017-09-30T03:11:48.082Z,0
2017-09-30T03:12:56.489Z,0
2017-09-30T03:14:04.570Z,0
2017-09-30T03:15:12.660Z,0
2017-09-30T03:16:20.758Z,0
2017-09-30T03:17:28.830Z,0
2017-09-30T03:18:36.914Z,0
2017-09-30T03:19:44.999Z,0
2017-09-30T03:20:53.084Z,0
2017-09-30T03:22:01.172Z,0
2017-09-30T03:23:09.258Z,0
2017-09-30T03:24:17.342Z,0
2017-09-30T03:25:25.427Z,0
2017-09-30T03:26:33.511Z,0
2017-09-30T03:27:41.599Z,0
2017-09-30T03:28:49.703Z,0
2017-09-30T03:29:57.773Z,0
2017-09-30T03:31:05.858Z,0
2017-09-30T03:32:13.946Z,0
2017-09-30T03:33:22.030Z,0
2017-09-30T03:34:30.121Z,0
2017-09-30T03:35:38.199Z,0
2017-09-30T03:36:46.285Z,0
2017-09-30T03:37:54.372Z,0
2017-09-30T03:39:02.453Z,0
2017-09-30T03:40:10.546Z,0
2017-09-30T03:41:18.638Z,0
2017-09-30T03:42:26.721Z,0
2017-09-30T03:43:34.806Z,0
2017-09-30T03:44:42.891Z,0
2017-09-30T03:45:50.977Z,0
2017-09-30T03:46:59.062Z,0
2017-09-30T03:48:07.148Z,0
2017-09-30T03:49:15.233Z,0
2017-09-30T03:50:23.321Z,0
2017-09-30T03:51:31.408Z,0
2017-09-30T03:52:39.493Z,0
2017-09-30T03:53:47.577Z,0
2017-09-30T03:54:55.665Z,0
2017-09-30T03:56:03.749Z,0
2017-09-30T03:57:11.840Z,0
2017-09-30T03:58:19.932Z,0
2017-09-30T03:59:28.015Z,0
2017-09-30T04:00:36.100Z,0
2017-09-30T04:01:44.185Z,0
2017-09-30T04:02:52.270Z,0
2017-09-30T04:04:00.358Z,0
2017-09-30T04:05:08.471Z,0
2017-09-30T04:06:16.530Z,0
2017-09-30T04:07:24.618Z,0
2017-09-30T04:08:32.705Z,0
2017-09-30T04:09:40.790Z,0
2017-09-30T04:10:48.876Z,0
2017-09-30T04:11:56.961Z,0
2017-09-30T04:13:05.065Z,0
2017-09-30T04:14:13.132Z,0
2017-09-30T04:15:21.222Z,0
2017-09-30T04:16:29.305Z,0
2017-09-30T04:17:37.391Z,0
2017-09-30T04:18:45.477Z,0
2017-09-30T04:19:53.577Z,0
2017-09-30T04:21:01.649Z,0
2017-09-30T04:22:09.776Z,0
2017-09-30T04:23:17.863Z,0
2017-09-30T04:24:25.947Z,0
2017-09-30T04:25:34.037Z,0
2017-09-30T04:26:42.121Z,0
2017-09-30T04:27:50.207Z,0
2017-09-30T04:28:58.291Z,0
2017-09-30T04:30:06.380Z,0
2017-09-30T04:31:14.464Z,0
2017-09-30T04:32:22.546Z,0
2017-09-30T04:33:30.638Z,0
2017-09-30T04:34:38.718Z,0
2017-09-30T04:35:46.804Z,0
2017-09-30T04:36:54.889Z,0
2017-09-30T04:38:02.977Z,0
2017-09-30T04:39:11.065Z,0
2017-09-30T04:40:19.148Z,0
2017-09-30T04:41:27.234Z,0
2017-09-30T04:42:35.317Z,0
2017-09-30T04:43:43.525Z,0
2017-09-30T04:44:51.611Z,0
2017-09-30T04:45:59.698Z,0
2017-09-30T04:47:07.788Z,0
2017-09-30T04:48:15.868Z,0
2017-09-30T04:49:23.955Z,0
2017-09-30T04:50:32.046Z,0
2017-09-30T04:51:40.126Z,0
2017-09-30T04:52:48.211Z,0
2017-09-30T04:53:56.298Z,0
2017-09-30T04:55:04.381Z,0
2017-09-30T04:56:12.468Z,0
2017-09-30T04:57:20.556Z,0
2017-09-30T04:58:28.648Z,0
2017-09-30T04:59:36.746Z,0
2017-09-30T05:00:44.813Z,0
2017-09-30T05:01:52.901Z,0
2017-09-30T05:03:00.985Z,0
2017-09-30T05:04:09.080Z,0
2017-09-30T05:05:17.158Z,0
2017-09-30T05:06:25.245Z,0
2017-09-30T05:07:33.330Z,0
2017-09-30T05:08:41.416Z,0
2017-09-30T05:09:49.502Z,0
2017-09-30T05:10:57.588Z,0
2017-09-30T05:12:05.677Z,0
2017-09-30T05:13:13.758Z,0
2017-09-30T05:14:22.067Z,0
2017-09-30T05:15:29.930Z,0
2017-09-30T05:16:38.250Z,0
2017-09-30T05:17:46.334Z,0
2017-09-30T05:18:54.422Z,0
2017-09-30T05:20:02.505Z,0
2017-09-30T05:21:10.640Z,0
2017-09-30T05:22:18.679Z,0
2017-09-30T05:23:26.763Z,0
2017-09-30T05:24:34.853Z,0
2017-09-30T05:25:42.934Z,0
2017-09-30T05:26:51.019Z,0
2017-09-30T05:27:59.108Z,0
2017-09-30T05:29:07.192Z,0
2017-09-30T05:30:15.277Z,0
2017-09-30T05:31:23.361Z,4
2017-09-30T05:32:31.447Z,0
2017-09-30T05:33:39.541Z,0
2017-09-30T05:34:47.638Z,0
2017-09-30T05:35:55.728Z,0
2017-09-30T05:37:03.817Z,0
2017-09-30T05:38:11.896Z,0
2017-09-30T05:39:19.981Z,0
2017-09-30T05:40:28.068Z,0
2017-09-30T05:41:36.152Z,0
2017-09-30T05:42:44.237Z,4
2017-09-30T05:43:52.323Z,4
2017-09-30T05:45:00.719Z,0
2017-09-30T05:46:08.493Z,0
2017-09-30T05:47:16.590Z,0
2017-09-30T05:48:24.693Z,4
2017-09-30T05:49:33.138Z,4
2017-09-30T05:50:40.887Z,0
2017-09-30T05:51:48.930Z,4
2017-09-30T05:52:57.016Z,4
2017-09-30T05:54:05.206Z,0
2017-09-30T05:55:13.573Z,4
2017-09-30T05:56:21.454Z,4
2017-09-30T05:57:29.360Z,4
2017-09-30T05:58:37.445Z,4
2017-09-30T05:59:45.528Z,4
2017-09-30T06:00:53.620Z,4
2017-09-30T06:02:01.699Z,4
2017-09-30T06:03:09.789Z,4
2017-09-30T06:04:17.874Z,4
2017-09-30T06:05:25.960Z,8
2017-09-30T06:06:34.269Z,4
2017-09-30T06:07:42.604Z,4
2017-09-30T06:08:50.213Z,8
2017-09-30T06:09:58.296Z,4
2017-09-30T06:11:06.381Z,4
2017-09-30T06:12:14.467Z,8
2017-09-30T06:13:22.553Z,8
2017-09-30T06:14:30.642Z,8
2017-09-30T06:15:38.732Z,4
2017-09-30T06:16:46.918Z,8
2017-09-30T06:17:54.901Z,4
2017-09-30T06:19:03.123Z,4
2017-09-30T06:20:11.074Z,8
2017-09-30T06:21:19.150Z,4
2017-09-30T06:22:27.235Z,4
2017-09-30T06:23:35.321Z,4
2017-09-30T06:24:43.407Z,8
2017-09-30T06:25:51.495Z,8
2017-09-30T06:26:59.579Z,4
2017-09-30T06:28:07.668Z,4
2017-09-30T06:29:15.753Z,4
2017-09-30T06:30:23.834Z,4
2017-09-30T06:31:31.918Z,4
2017-09-30T06:32:40.003Z,8
2017-09-30T06:33:48.089Z,8
2017-09-30T06:34:56.175Z,8
2017-09-30T06:36:04.259Z,4
2017-09-30T06:37:12.346Z,8
2017-09-30T06:38:20.431Z,4
2017-09-30T06:39:28.516Z,4
2017-09-30T06:40:36.604Z,8
2017-09-30T06:41:44.690Z,4
2017-09-30T06:42:52.782Z,4
2017-09-30T06:44:00.864Z,4
2017-09-30T06:45:08.946Z,4
2017-09-30T06:46:17.031Z,4
2017-09-30T06:47:25.160Z,4
2017-09-30T06:48:33.205Z,4
2017-09-30T06:49:41.413Z,4
2017-09-30T06:50:49.372Z,4
2017-09-30T06:51:57.457Z,4
2017-09-30T06:53:05.542Z,4
2017-09-30T06:54:13.757Z,4
2017-09-30T06:55:21.792Z,4
2017-09-30T06:56:29.923Z,4
2017-09-30T06:57:37.941Z,4
2017-09-30T06:58:46.013Z,4
2017-09-30T06:59:54.093Z,4
2017-09-30T07:01:02.148Z,4
2017-09-30T07:02:10.232Z,8
2017-09-30T07:03:18.427Z,4
2017-09-30T07:04:26.411Z,4
2017-09-30T07:05:34.577Z,4
2017-09-30T07:06:42.574Z,4
2017-09-30T07:07:50.665Z,4
2017-09-30T07:08:58.743Z,4
2017-09-30T07:10:07.383Z,8
2017-09-30T07:11:15.209Z,8
2017-09-30T07:12:23.001Z,4
2017-09-30T07:13:31.530Z,8
2017-09-30T07:14:39.886Z,4
2017-09-30T07:15:47.761Z,8
2017-09-30T07:16:55.741Z,28
2017-09-30T07:18:03.955Z,32
2017-09-30T07:19:11.515Z,32
2017-09-30T07:20:20.228Z,32
2017-09-30T07:21:27.709Z,36
2017-09-30T07:22:36.168Z,36
2017-09-30T07:23:44.149Z,32
2017-09-30T07:24:51.972Z,28
2017-09-30T07:26:00.415Z,20
2017-09-30T07:27:08.144Z,36
2017-09-30T07:28:16.264Z,20
2017-09-30T07:29:24.321Z,28
2017-09-30T07:30:33.114Z,24
2017-09-30T07:31:40.494Z,20
2017-09-30T07:32:48.580Z,20
2017-09-30T07:33:56.734Z,24
2017-09-30T07:35:04.758Z,24
2017-09-30T07:36:13.428Z,28
2017-09-30T07:37:20.929Z,20
2017-09-30T07:38:29.015Z,20
2017-09-30T07:39:37.106Z,20
2017-09-30T07:40:45.265Z,24
2017-09-30T07:41:53.271Z,28
2017-09-30T07:43:01.357Z,24
2017-09-30T07:44:09.442Z,28
2017-09-30T07:45:17.528Z,24
2017-09-30T07:46:25.612Z,24
2017-09-30T07:47:33.701Z,24
2017-09-30T07:48:41.785Z,24
2017-09-30T07:49:50.130Z,28
2017-09-30T07:50:58.082Z,28
2017-09-30T07:52:06.161Z,28
2017-09-30T07:53:14.246Z,24
2017-09-30T07:54:22.545Z,28
2017-09-30T07:55:30.424Z,28
2017-09-30T07:56:38.515Z,28
2017-09-30T07:57:46.597Z,28
2017-09-30T07:58:54.691Z,24
2017-09-30T08:00:02.779Z,28
2017-09-30T08:01:10.863Z,28
2017-09-30T08:02:18.949Z,28
2017-09-30T08:03:27.034Z,32
2017-09-30T08:04:35.119Z,32
2017-09-30T08:05:43.434Z,36
2017-09-30T08:06:51.291Z,32
2017-09-30T08:07:59.383Z,32
2017-09-30T08:09:07.464Z,32
2017-09-30T08:10:15.549Z,32
2017-09-30T08:11:23.636Z,36
2017-09-30T08:12:31.721Z,28
2017-09-30T08:13:39.805Z,36
2017-09-30T08:14:47.890Z,36
2017-09-30T08:15:55.977Z,36
2017-09-30T08:17:04.063Z,32
2017-09-30T08:18:12.149Z,20
2017-09-30T08:19:20.233Z,36
2017-09-30T08:20:28.336Z,20
2017-09-30T08:21:36.406Z,20
2017-09-30T08:22:44.490Z,20
2017-09-30T08:23:52.576Z,24
2017-09-30T08:25:00.661Z,20
2017-09-30T08:26:08.746Z,36
2017-09-30T08:27:16.833Z,40
2017-09-30T08:28:24.918Z,40
2017-09-30T08:29:33.007Z,24
2017-09-30T08:30:41.095Z,36
2017-09-30T08:31:49.175Z,32
2017-09-30T08:32:57.258Z,40
2017-09-30T08:34:05.351Z,40
2017-09-30T08:35:13.437Z,32
2017-09-30T08:36:21.523Z,28
2017-09-30T08:37:29.611Z,28
2017-09-30T08:38:37.693Z,36
2017-09-30T08:39:45.780Z,20
2017-09-30T08:40:54.374Z,36
2017-09-30T08:42:01.965Z,20
2017-09-30T08:43:10.035Z,16
2017-09-30T08:44:18.492Z,20
2017-09-30T08:45:27.259Z,20
2017-09-30T08:46:34.755Z,16
2017-09-30T08:47:42.589Z,16
2017-09-30T08:48:50.462Z,16
2017-09-30T08:49:58.925Z,16
2017-09-30T08:51:06.644Z,16
2017-09-30T08:52:14.734Z,16
2017-09-30T08:53:22.815Z,12
2017-09-30T08:54:30.906Z,12
2017-09-30T08:55:38.993Z,16
2017-09-30T08:56:47.077Z,16
2017-09-30T08:57:55.162Z,16
2017-09-30T08:59:03.248Z,16
2017-09-30T09:00:11.332Z,12
2017-09-30T09:01:19.420Z,20
2017-09-30T09:02:27.505Z,16
2017-09-30T09:03:35.592Z,16
2017-09-30T09:04:43.681Z,16
2017-09-30T09:05:51.780Z,16
2017-09-30T09:06:59.849Z,20
2017-09-30T09:08:07.933Z,16
2017-09-30T09:09:16.026Z,16
2017-09-30T09:10:24.102Z,16
2017-09-30T09:11:32.188Z,16
2017-09-30T09:12:40.276Z,16
2017-09-30T09:13:48.363Z,16
2017-09-30T09:14:56.448Z,20
2017-09-30T09:16:04.532Z,24
2017-09-30T09:17:12.620Z,24
2017-09-30T09:18:20.720Z,20
2017-09-30T09:19:28.792Z,28
2017-09-30T09:20:36.877Z,28
2017-09-30T09:21:44.962Z,20
2017-09-30T09:22:53.051Z,20
2017-09-30T09:24:01.131Z,16
2017-09-30T09:25:09.216Z,16
2017-09-30T09:26:17.303Z,20
2017-09-30T09:27:25.388Z,20
2017-09-30T09:28:33.471Z,20
2017-09-30T09:29:41.560Z,20
2017-09-30T09:30:49.728Z,20
2017-09-30T09:31:57.734Z,20
2017-09-30T09:33:05.814Z,20
2017-09-30T09:34:13.919Z,20
2017-09-30T09:35:21.991Z,20
2017-09-30T09:36:30.072Z,24
2017-09-30T09:37:38.158Z,24
2017-09-30T09:38:46.244Z,44
2017-09-30T09:39:54.476Z,48
2017-09-30T09:41:02.566Z,48
2017-09-30T09:42:10.648Z,48
2017-09-30T09:43:18.759Z,48
2017-09-30T09:44:26.826Z,40
2017-09-30T09:45:34.912Z,48
2017-09-30T09:46:42.997Z,48
2017-09-30T09:47:51.085Z,48
2017-09-30T09:48:59.173Z,44
2017-09-30T09:50:07.255Z,44
2017-09-30T09:51:15.359Z,44
2017-09-30T09:52:23.426Z,44
2017-09-30T09:53:31.512Z,40
2017-09-30T09:54:39.596Z,40
2017-09-30T09:55:47.681Z,44
2017-09-30T09:56:55.771Z,40
2017-09-30T09:58:03.859Z,44
2017-09-30T09:59:11.940Z,44
2017-09-30T10:00:20.027Z,44
2017-09-30T10:01:28.110Z,44
2017-09-30T10:02:36.195Z,40
2017-09-30T10:03:44.278Z,44
2017-09-30T10:04:52.365Z,44
2017-09-30T10:06:00.450Z,48
2017-09-30T10:07:08.536Z,44
2017-09-30T10:08:16.623Z,44
2017-09-30T10:09:24.727Z,44
2017-09-30T10:10:32.794Z,48
2017-09-30T10:11:40.924Z,44
2017-09-30T10:12:48.962Z,44
2017-09-30T10:13:57.049Z,48
2017-09-30T10:15:05.135Z,44
2017-09-30T10:16:13.220Z,44
2017-09-30T10:17:21.306Z,44
2017-09-30T10:18:29.394Z,44
2017-09-30T10:19:37.479Z,36
2017-09-30T10:20:45.560Z,44
2017-09-30T10:21:53.661Z,44
2017-09-30T10:23:01.745Z,48
2017-09-30T10:24:09.833Z,48
2017-09-30T10:25:17.914Z,44
2017-09-30T10:26:26.001Z,44
2017-09-30T10:27:34.084Z,48
2017-09-30T10:28:42.171Z,48
2017-09-30T10:29:50.255Z,48
2017-09-30T10:30:58.341Z,48
2017-09-30T10:32:06.426Z,44
2017-09-30T10:33:14.513Z,40
2017-09-30T10:34:22.599Z,44
2017-09-30T10:35:30.683Z,28
2017-09-30T10:36:38.807Z,28
2017-09-30T10:37:46.856Z,24
2017-09-30T10:38:54.939Z,36
2017-09-30T10:40:03.025Z,44
2017-09-30T10:41:11.112Z,44
2017-09-30T10:42:19.197Z,40
2017-09-30T10:43:27.284Z,40
2017-09-30T10:44:35.370Z,40
2017-09-30T10:45:43.455Z,36
2017-09-30T10:46:51.541Z,36
2017-09-30T10:47:59.630Z,40
2017-09-30T10:49:07.713Z,40
2017-09-30T10:50:15.803Z,36
2017-09-30T10:51:23.911Z,36
2017-09-30T10:52:31.974Z,40
2017-09-30T10:53:40.060Z,36
2017-09-30T10:54:48.145Z,36
2017-09-30T10:55:56.232Z,36
2017-09-30T10:57:04.318Z,32
2017-09-30T10:58:12.401Z,32
2017-09-30T10:59:20.488Z,36
2017-09-30T11:00:28.573Z,32
2017-09-30T11:01:36.664Z,36
2017-09-30T11:02:44.745Z,32
2017-09-30T11:03:52.838Z,32
2017-09-30T11:05:01.323Z,32
2017-09-30T11:06:09.013Z,32
2017-09-30T11:07:17.093Z,36
2017-09-30T11:08:25.180Z,40
2017-09-30T11:09:33.269Z,40
2017-09-30T11:10:41.350Z,32
2017-09-30T11:11:49.437Z,36
2017-09-30T11:12:57.525Z,36
2017-09-30T11:14:05.612Z,36
2017-09-30T11:15:13.703Z,36
2017-09-30T11:16:21.857Z,32
2017-09-30T11:17:29.874Z,32
2017-09-30T11:18:37.981Z,36
2017-09-30T11:19:46.067Z,32
2017-09-30T11:20:54.151Z,32
2017-09-30T11:22:02.236Z,32
2017-09-30T11:23:10.323Z,32
2017-09-30T11:24:18.410Z,32
2017-09-30T11:25:26.496Z,32
2017-09-30T11:26:34.583Z,32
2017-09-30T11:27:42.802Z,32
2017-09-30T11:28:50.774Z,32
2017-09-30T11:29:58.851Z,32
2017-09-30T11:31:06.961Z,32
2017-09-30T11:32:15.194Z,32
2017-09-30T11:33:23.128Z,32
2017-09-30T11:34:31.244Z,32
2017-09-30T11:35:39.330Z,28
2017-09-30T11:36:47.412Z,28
2017-09-30T11:37:55.500Z,28
2017-09-30T11:39:03.586Z,28
2017-09-30T11:40:11.681Z,32
2017-09-30T11:41:19.765Z,32
2017-09-30T11:42:27.860Z,32
2017-09-30T11:43:35.945Z,32
2017-09-30T11:44:44.025Z,28
2017-09-30T11:45:52.111Z,28
2017-09-30T11:47:00.197Z,24
2017-09-30T11:48:08.284Z,20
2017-09-30T11:49:16.371Z,16
2017-09-30T11:50:24.463Z,16
2017-09-30T11:51:32.551Z,20
2017-09-30T11:52:40.636Z,20
2017-09-30T11:53:49.109Z,20
2017-09-30T11:54:57.290Z,20
2017-09-30T11:56:04.900Z,20
2017-09-30T11:57:13.068Z,24
2017-09-30T11:58:21.080Z,24
2017-09-30T11:59:29.170Z,32
2017-09-30T12:00:37.260Z,32
2017-09-30T12:01:45.344Z,28
2017-09-30T12:02:53.430Z,24
2017-09-30T12:04:01.518Z,20
2017-09-30T12:05:09.603Z,20
2017-09-30T12:06:17.701Z,24
2017-09-30T12:07:25.789Z,20
2017-09-30T12:08:33.872Z,20
2017-09-30T12:09:41.959Z,20
2017-09-30T12:10:50.044Z,20
2017-09-30T12:11:58.132Z,20
2017-09-30T12:13:06.217Z,20
2017-09-30T12:14:14.349Z,20
2017-09-30T12:15:22.386Z,20
2017-09-30T12:16:30.474Z,20
2017-09-30T12:17:38.559Z,20
2017-09-30T12:18:46.645Z,20
2017-09-30T12:19:54.731Z,24
2017-09-30T12:21:02.817Z,20
2017-09-30T12:22:10.914Z,24
2017-09-30T12:23:19.125Z,24
2017-09-30T12:24:27.076Z,24
2017-09-30T12:25:35.160Z,24
2017-09-30T12:26:43.246Z,24
2017-09-30T12:27:51.693Z,28
2017-09-30T12:28:59.417Z,28
2017-09-30T12:30:07.505Z,24
2017-09-30T12:31:15.593Z,20
2017-09-30T12:32:23.696Z,24
2017-09-30T12:33:31.766Z,24
2017-09-30T12:34:39.848Z,20
2017-09-30T12:35:47.934Z,20
2017-09-30T12:36:56.021Z,20
2017-09-30T12:38:04.124Z,24
2017-09-30T12:39:12.236Z,20
2017-09-30T12:40:20.410Z,20
2017-09-30T12:41:28.384Z,16
2017-09-30T12:42:36.452Z,16
2017-09-30T12:43:44.538Z,16
2017-09-30T12:44:52.640Z,16
2017-09-30T12:46:00.725Z,20
2017-09-30T12:47:08.798Z,20
2017-09-30T12:48:16.884Z,20
2017-09-30T12:49:24.966Z,16
2017-09-30T12:50:33.051Z,16
2017-09-30T12:51:41.137Z,20
2017-09-30T12:52:49.454Z,20
2017-09-30T12:53:57.542Z,20
2017-09-30T12:55:05.624Z,20
2017-09-30T12:56:13.711Z,20
2017-09-30T12:57:21.811Z,20
2017-09-30T12:58:29.908Z,20
2017-09-30T12:59:38.006Z,20
2017-09-30T13:00:46.086Z,20
2017-09-30T13:01:54.171Z,24
2017-09-30T13:03:02.256Z,24
2017-09-30T13:04:10.342Z,28
2017-09-30T13:05:18.427Z,28
2017-09-30T13:06:26.513Z,24
2017-09-30T13:07:34.600Z,24
2017-09-30T13:08:42.685Z,28
2017-09-30T13:09:50.776Z,24
2017-09-30T13:10:58.858Z,20
2017-09-30T13:12:06.944Z,24
2017-09-30T13:13:15.029Z,24
2017-09-30T13:14:23.114Z,24
2017-09-30T13:15:31.223Z,28
2017-09-30T13:16:39.310Z,24
2017-09-30T13:17:47.393Z,28
2017-09-30T13:18:55.480Z,24
2017-09-30T13:20:03.567Z,20
2017-09-30T13:21:11.656Z,24
2017-09-30T13:22:19.764Z,20
2017-09-30T13:23:27.834Z,20
2017-09-30T13:24:35.924Z,20
2017-09-30T13:25:44.016Z,20
2017-09-30T13:26:52.090Z,20
2017-09-30T13:28:00.176Z,20
2017-09-30T13:29:08.262Z,20
2017-09-30T13:30:16.350Z,16
2017-09-30T13:31:24.438Z,16
2017-09-30T13:32:32.520Z,16
2017-09-30T13:33:40.616Z,16
2017-09-30T13:34:48.720Z,16
2017-09-30T13:35:56.789Z,20
2017-09-30T13:37:04.876Z,20
2017-09-30T13:38:12.962Z,20
2017-09-30T13:39:21.048Z,20
2017-09-30T13:40:29.171Z,20
2017-09-30T13:41:37.256Z,24
2017-09-30T13:42:45.339Z,16
2017-09-30T13:43:53.424Z,20
2017-09-30T13:45:01.506Z,16
2017-09-30T13:46:09.635Z,20
2017-09-30T13:47:17.688Z,20
2017-09-30T13:48:25.769Z,16
2017-09-30T13:49:33.855Z,16
2017-09-30T13:50:41.941Z,20
2017-09-30T13:51:50.029Z,16
2017-09-30T13:52:58.113Z,20
2017-09-30T13:54:06.198Z,16
2017-09-30T13:55:14.283Z,20
2017-09-30T13:56:22.370Z,20
2017-09-30T13:57:30.454Z,20
2017-09-30T13:58:38.542Z,20
2017-09-30T13:59:46.632Z,16
2017-09-30T14:00:54.721Z,24
2017-09-30T14:02:02.800Z,20
2017-09-30T14:03:10.902Z,20
2017-09-30T14:04:19.357Z,20
2017-09-30T14:05:27.054Z,20
2017-09-30T14:06:35.142Z,20
2017-09-30T14:07:43.228Z,16
2017-09-30T14:08:51.315Z,16
2017-09-30T14:09:59.401Z,16
2017-09-30T14:11:07.493Z,16
2017-09-30T14:12:15.572Z,16
2017-09-30T14:13:23.657Z,16
2017-09-30T14:14:31.749Z,16
2017-09-30T14:15:39.852Z,12
2017-09-30T14:16:47.934Z,16
2017-09-30T14:17:56.018Z,12
2017-09-30T14:19:04.111Z,16
2017-09-30T14:20:12.195Z,16
2017-09-30T14:21:20.311Z,12
2017-09-30T14:22:28.367Z,12
2017-09-30T14:23:36.509Z,12
2017-09-30T14:24:44.595Z,16
2017-09-30T14:25:52.683Z,12
2017-09-30T14:27:00.771Z,12
2017-09-30T14:28:08.855Z,12
2017-09-30T14:29:16.938Z,16
2017-09-30T14:30:25.031Z,16
2017-09-30T14:31:33.113Z,12
2017-09-30T14:32:41.198Z,12
2017-09-30T14:33:49.285Z,12
2017-09-30T14:34:57.371Z,12
2017-09-30T14:36:05.458Z,12
2017-09-30T14:37:13.544Z,12
2017-09-30T14:38:21.634Z,12
2017-09-30T14:39:29.717Z,12
2017-09-30T14:40:37.890Z,12
2017-09-30T14:41:45.981Z,12
2017-09-30T14:42:54.063Z,12
2017-09-30T14:44:02.147Z,12
2017-09-30T14:45:10.234Z,12
2017-09-30T14:46:18.318Z,12
2017-09-30T14:47:26.406Z,12
2017-09-30T14:48:34.492Z,12
2017-09-30T14:49:42.578Z,8
2017-09-30T14:50:50.665Z,12
2017-09-30T14:51:58.751Z,8
2017-09-30T14:53:06.838Z,12
2017-09-30T14:54:14.922Z,12
2017-09-30T14:55:23.018Z,12
2017-09-30T14:56:31.121Z,12
2017-09-30T14:57:39.192Z,12
2017-09-30T14:58:47.275Z,12
2017-09-30T14:59:55.362Z,12
2017-09-30T15:01:03.460Z,8
2017-09-30T15:02:11.544Z,8
2017-09-30T15:03:19.645Z,8
2017-09-30T15:04:27.731Z,8
2017-09-30T15:05:35.813Z,12
2017-09-30T15:06:43.900Z,12
2017-09-30T15:07:51.985Z,12
2017-09-30T15:09:00.069Z,8
2017-09-30T15:10:08.170Z,12
2017-09-30T15:11:16.256Z,8
2017-09-30T15:12:24.342Z,8
2017-09-30T15:13:32.440Z,8
2017-09-30T15:14:40.532Z,8
2017-09-30T15:15:48.617Z,4
2017-09-30T15:16:56.724Z,8
2017-09-30T15:18:04.817Z,4
2017-09-30T15:19:12.929Z,8
2017-09-30T15:20:21.014Z,4
2017-09-30T15:21:29.100Z,8
2017-09-30T15:22:37.186Z,8
2017-09-30T15:23:45.274Z,4
2017-09-30T15:24:53.357Z,4
2017-09-30T15:26:01.459Z,4
2017-09-30T15:27:09.532Z,4
2017-09-30T15:28:17.617Z,8
2017-09-30T15:29:25.720Z,8
2017-09-30T15:30:33.807Z,8
2017-09-30T15:31:41.873Z,8
2017-09-30T15:32:49.959Z,8
2017-09-30T15:33:58.047Z,4
2017-09-30T15:35:06.133Z,4
2017-09-30T15:36:14.220Z,4
2017-09-30T15:37:22.309Z,4
2017-09-30T15:38:30.393Z,4
2017-09-30T15:39:38.478Z,4
2017-09-30T15:40:46.564Z,8
2017-09-30T15:41:54.652Z,4
2017-09-30T15:43:02.736Z,4
2017-09-30T15:44:10.825Z,4
2017-09-30T15:45:18.912Z,4
2017-09-30T15:46:26.996Z,4
2017-09-30T15:47:35.090Z,4
2017-09-30T15:48:43.176Z,4
2017-09-30T15:49:51.260Z,4
2017-09-30T15:50:59.347Z,0
2017-09-30T15:52:07.435Z,0
2017-09-30T15:53:15.520Z,0
2017-09-30T15:54:23.608Z,0
2017-09-30T15:55:31.747Z,4
2017-09-30T15:56:39.779Z,4
2017-09-30T15:57:47.884Z,4
2017-09-30T15:58:55.950Z,4
2017-09-30T16:00:04.048Z,4
2017-09-30T16:01:12.142Z,0
2017-09-30T16:02:20.228Z,0
2017-09-30T16:03:28.313Z,4
2017-09-30T16:04:36.398Z,4
2017-09-30T16:05:44.486Z,4
2017-09-30T16:06:52.571Z,4
2017-09-30T16:08:00.663Z,4
2017-09-30T16:09:08.746Z,0
2017-09-30T16:10:16.832Z,0
2017-09-30T16:11:24.917Z,0
2017-09-30T16:12:33.007Z,0
2017-09-30T16:13:41.087Z,0
2017-09-30T16:14:49.174Z,0
2017-09-30T16:15:57.269Z,0
2017-09-30T16:17:05.350Z,4
2017-09-30T16:18:13.434Z,4
2017-09-30T16:19:21.519Z,4
2017-09-30T16:20:29.615Z,0
2017-09-30T16:21:37.691Z,0
2017-09-30T16:22:45.894Z,0
2017-09-30T16:23:53.983Z,0
2017-09-30T16:25:02.063Z,0
2017-09-30T16:26:10.171Z,4
2017-09-30T16:27:18.249Z,4
2017-09-30T16:28:26.341Z,4
2017-09-30T16:29:34.427Z,4